Denver, CO

8:29 AM MDT on September 17, 2014 (GMT -0600)
Jeffco | Change Station
CLOSE
Current Station
Airport
Location: Broomfield,
Elevation: 5656 ft
Nearby Weather Stations

Elev 5656 ft 39.90 °N, 105.10 °W | Updated 42 minutes ago

Partly Cloudy
Partly Cloudy
63 °F
Feels Like 63 °F
N
5
Wind Variable Wind from WSW

Today
High -- | Low -- °F
--% Chance of Precip.
Yesterday
High -- | Low -- °F
Precip. -- in
6:42 AM 7:05 PM
Waning Crescent, 35% visible
Pressure 30.12 in
Visibility 50.0 miles
Clouds Few 9000 ft
Mostly Cloudy 18000 ft
Dew Point 39 °F
Humidity 42%
Rainfall 0.00 in
Snow Depth 0 in , 0 in , 0 in
UV 0 out of 12
Pollen 7.70 out of 12
Ozone Good
PM2.5 Good
Flu Activity Not available.
METAR KBJC 171347Z 24004KT 50SM FEW090 BKN180 17/04 A3012

More Conditions Fewer Conditions

Pressure 30.12 in
Visibility 50.0 miles
Clouds Few 9000 ft
Mostly Cloudy 18000 ft
Dew Point 39 °F
Humidity 42%
Rainfall 0.00 in
Snow Depth 0 in , 0 in , 0 in
UV 0 out of 12
Pollen 7.70 out of 12
Ozone Good
PM2.5 Good
Flu Activity Not available.
METAR KBJC 171347Z 24004KT 50SM FEW090 BKN180 17/04 A3012

More Conditions Fewer Conditions

10-Day Weather Forecast

Almanac

Astronomy

Sep. 17, 2014 Rise Set
Actual Time 6:42 AM MDT 7:05 PM MDT
Civil Twilight 6:15 AM MDT 7:32 PM MDT
Nautical Twilight 5:44 AM MDT 8:03 PM MDT
Astronomical Twilight 5:11 AM MDT 8:36 PM MDT
Moon 12:45 AM MDT 3:16 PM MDT
Length of Visible Light 13h 16m
Length of Day
12h 22m
Tomorrow will be 2m 35s shorter.
Waning Crescent, 35% of the Moon is Illuminated
Today
Waning Crescent
Sep 24
New
Oct 1
First Quarter
Oct 8
Full
Oct 15
Last Quarter

Today's Extremes

State Highs State Lows

Community

WunderPhotos

Upload Photos

1,754,049 photos uploaded!

WunderBlogs® & News

By Dr. Jeff Masters
Director of Meteorology, Weather Underground
By Kari Strenfel
Meteorologist, Weather Underground
By Christopher C. Burt
Weather Historian, Weather Underground
September 17, 2014
September 17, 2014
September 17, 2014

Nearby

Air Quality

  Air Quality AQ Index Pollutant
Yesterday Good
OZONE
Yesterday Good
PM10
Current Good
PM2.5
Current Good
OZONE
Tuesday Moderate
OZONE
Tuesday Good
PM2.5
Wednesday Moderate
OZONE
Wednesday Good
PM2.5

Snow Depth

Station Depth Elevation
Wolf Creek Summit 0 in 11000 ft
Roach 0 in 9700 ft
Berthoud Summit 0 in 11300 ft
Independence Pass 188 in 10600 ft
Trapper Lake 0 in 9700 ft

Earthquake Activity

City Distance Mag. Time & Date
No recent earthquake activity has been reported nearby.
Minimum magnitude displayed is 2.5.

Coastal Water Temperatures

Place Temperature
No Stations Reporting

Nearby Weather Stations